createdAt,value
2022-12-02T00:00:24.926Z,22.85
2022-12-02T00:01:27.629Z,21.65
2022-12-02T00:02:34.960Z,22.15
2022-12-02T00:03:39.972Z,22.17
2022-12-02T00:04:42.069Z,20.58
2022-12-02T00:05:44.296Z,20.63
2022-12-02T00:06:46.303Z,20.75
2022-12-02T00:07:57.418Z,21.00
2022-12-02T00:09:02.876Z,20.38
2022-12-02T00:10:19.959Z,21.42
2022-12-02T00:11:29.431Z,20.05
2022-12-02T00:12:32.072Z,19.45
2022-12-02T00:13:42.210Z,20.45
2022-12-02T00:14:44.199Z,19.75
2022-12-02T00:15:47.550Z,21.50
2022-12-02T00:16:49.923Z,27.17
2022-12-02T00:17:51.974Z,25.20
2022-12-02T00:18:54.536Z,22.85
2022-12-02T00:19:56.583Z,20.45
2022-12-02T00:20:58.563Z,21.65
2022-12-02T00:22:00.560Z,20.65
2022-12-02T00:23:02.679Z,22.70
2022-12-02T00:24:04.828Z,23.77
2022-12-02T00:25:06.930Z,22.50
2022-12-02T00:26:09.134Z,21.50
2022-12-02T00:27:11.160Z,21.70
2022-12-02T00:28:13.224Z,24.48
2022-12-02T00:29:15.265Z,21.30
2022-12-02T00:30:17.900Z,23.65
2022-12-02T00:31:20.080Z,22.30
2022-12-02T00:32:22.158Z,20.30
2022-12-02T00:33:24.199Z,20.67
2022-12-02T00:34:26.236Z,18.45
2022-12-02T00:35:28.268Z,17.77
2022-12-02T00:36:30.588Z,17.02
2022-12-02T00:37:32.671Z,16.70
2022-12-02T00:38:34.839Z,18.45
2022-12-02T00:39:36.858Z,18.45
2022-12-02T00:40:38.850Z,20.15
2022-12-02T00:41:40.864Z,18.98
2022-12-02T00:42:42.826Z,18.15
2022-12-02T00:44:03.213Z,18.30
2022-12-02T00:45:24.273Z,17.55
2022-12-02T00:46:32.430Z,17.58
2022-12-02T00:47:34.376Z,17.00
2022-12-02T00:48:36.435Z,16.02
2022-12-02T00:49:38.503Z,16.05
2022-12-02T00:50:40.519Z,16.17
2022-12-02T00:51:43.567Z,16.08
2022-12-02T00:52:45.729Z,15.70
2022-12-02T00:53:47.643Z,16.15
2022-12-02T00:54:49.945Z,14.48
2022-12-02T00:55:52.582Z,16.08
2022-12-02T00:56:54.614Z,15.45
2022-12-02T00:57:56.687Z,17.27
2022-12-02T00:58:58.693Z,15.57
2022-12-02T01:00:02.223Z,17.67
2022-12-02T01:01:04.414Z,17.02
2022-12-02T01:02:06.550Z,17.45
2022-12-02T01:03:08.553Z,17.15
2022-12-02T01:04:10.596Z,16.10
2022-12-02T01:05:12.717Z,17.27
2022-12-02T01:06:15.124Z,16.10
2022-12-02T01:07:17.187Z,16.08
2022-12-02T01:08:19.314Z,15.45
2022-12-02T01:09:21.367Z,15.60
2022-12-02T01:10:23.334Z,15.90
2022-12-02T01:11:25.260Z,15.57
2022-12-02T01:12:27.233Z,14.80
2022-12-02T01:13:29.404Z,15.20
2022-12-02T01:14:31.450Z,15.77
2022-12-02T01:15:33.531Z,15.35
2022-12-02T01:16:35.676Z,14.07
2022-12-02T01:17:37.833Z,15.10
2022-12-02T01:18:39.790Z,15.05
2022-12-02T01:19:42.652Z,14.27
2022-12-02T01:20:45.278Z,15.38
2022-12-02T01:21:47.386Z,14.00
2022-12-02T01:22:49.468Z,13.55
2022-12-02T01:23:51.774Z,13.80
2022-12-02T01:24:53.972Z,14.30
2022-12-02T01:25:56.032Z,13.63
2022-12-02T01:26:58.045Z,14.80
2022-12-02T01:28:00.303Z,12.82
2022-12-02T01:29:02.391Z,14.68
2022-12-02T01:30:04.529Z,13.95
2022-12-02T01:31:06.699Z,13.75
2022-12-02T01:32:08.690Z,13.20
2022-12-02T01:33:10.770Z,14.55
2022-12-02T01:34:13.881Z,13.75
2022-12-02T01:35:15.982Z,17.75
2022-12-02T01:36:19.957Z,17.52
2022-12-02T01:37:22.004Z,15.57
2022-12-02T01:38:23.994Z,15.23
2022-12-02T01:39:27.199Z,14.88
2022-12-02T01:40:29.426Z,14.43
2022-12-02T01:41:31.707Z,14.63
2022-12-02T01:42:34.288Z,14.40
2022-12-02T01:43:37.209Z,15.00
2022-12-02T01:44:39.475Z,14.52
2022-12-02T01:45:41.795Z,14.73
2022-12-02T01:46:44.154Z,15.57
2022-12-02T01:47:46.363Z,14.15
2022-12-02T01:48:49.553Z,14.38
2022-12-02T01:49:52.557Z,14.48
2022-12-02T01:50:54.639Z,14.45
2022-12-02T01:51:56.780Z,14.32
2022-12-02T01:52:58.926Z,14.25
2022-12-02T01:54:01.340Z,14.30
2022-12-02T01:55:04.324Z,16.17
2022-12-02T01:56:06.615Z,16.10
2022-12-02T01:57:13.003Z,14.88
2022-12-02T01:58:15.596Z,16.48
2022-12-02T01:59:17.993Z,15.13
2022-12-02T02:00:20.191Z,14.98
2022-12-02T02:01:26.695Z,15.85
2022-12-02T02:02:30.844Z,15.20
2022-12-02T02:03:33.069Z,14.57
2022-12-02T02:04:35.217Z,14.25
2022-12-02T02:05:37.886Z,14.07
2022-12-02T02:06:42.778Z,14.05
2022-12-02T02:07:49.510Z,14.35
2022-12-02T02:08:52.489Z,14.55
2022-12-02T02:09:54.944Z,14.65
2022-12-02T02:10:57.191Z,12.93
2022-12-02T02:11:59.659Z,13.48
2022-12-02T02:13:02.307Z,12.93
2022-12-02T02:14:06.055Z,14.18
2022-12-02T02:15:10.379Z,13.25
2022-12-02T02:16:15.984Z,12.63
2022-12-02T02:17:18.240Z,12.75
2022-12-02T02:18:20.171Z,11.85
2022-12-02T02:19:22.268Z,12.75
2022-12-02T02:20:25.655Z,12.85
2022-12-02T02:21:33.413Z,12.52
2022-12-02T02:22:38.675Z,13.93
2022-12-02T02:23:41.090Z,12.80
2022-12-02T02:24:43.210Z,13.02
2022-12-02T02:25:46.601Z,13.00
2022-12-02T02:26:50.684Z,13.32
2022-12-02T02:27:54.302Z,12.55
2022-12-02T02:28:56.637Z,13.57
2022-12-02T02:29:58.744Z,13.25
2022-12-02T02:31:01.170Z,13.90
2022-12-02T02:32:09.911Z,13.32
2022-12-02T02:33:13.261Z,14.20
2022-12-02T02:34:15.455Z,12.40
2022-12-02T02:35:18.596Z,14.70
2022-12-02T02:36:21.521Z,14.35
2022-12-02T02:37:24.716Z,15.07
2022-12-02T02:38:28.746Z,15.88
2022-12-02T02:39:31.540Z,16.88
2022-12-02T02:40:33.989Z,16.52
2022-12-02T02:41:36.443Z,18.05
2022-12-02T02:42:38.517Z,17.88
2022-12-02T02:43:40.755Z,17.17
2022-12-02T02:44:43.109Z,15.50
2022-12-02T02:45:45.612Z,16.52
2022-12-02T02:46:48.740Z,14.35
2022-12-02T02:47:51.192Z,16.33
2022-12-02T02:48:54.437Z,14.73
2022-12-02T02:49:56.561Z,15.10
2022-12-02T02:50:58.879Z,15.63
2022-12-02T02:52:01.090Z,15.52
2022-12-02T02:53:03.462Z,15.55
2022-12-02T02:54:05.527Z,15.27
2022-12-02T02:55:09.421Z,15.68
2022-12-02T02:56:11.525Z,15.65
2022-12-02T02:57:14.618Z,16.67
2022-12-02T02:58:21.048Z,15.57
2022-12-02T02:59:25.137Z,15.00
2022-12-02T03:00:27.153Z,15.20
2022-12-02T03:01:36.530Z,16.30
2022-12-02T03:02:39.428Z,16.30
2022-12-02T03:03:44.029Z,15.70
2022-12-02T03:04:47.071Z,15.93
2022-12-02T03:05:49.807Z,15.88
2022-12-02T03:06:52.227Z,15.77
2022-12-02T03:07:54.325Z,15.48
2022-12-02T03:08:56.687Z,14.93
2022-12-02T03:09:58.987Z,14.27
2022-12-02T03:11:02.533Z,15.95
2022-12-02T03:12:04.791Z,14.30
2022-12-02T03:13:06.984Z,13.80
2022-12-02T03:14:14.228Z,13.02
2022-12-02T03:15:17.937Z,13.93
2022-12-02T03:16:21.926Z,12.85
2022-12-02T03:17:24.139Z,13.52
2022-12-02T03:18:26.181Z,12.32
2022-12-02T03:19:28.883Z,12.82
2022-12-02T03:20:30.994Z,12.57
2022-12-02T03:21:35.220Z,12.95
2022-12-02T03:22:37.334Z,11.80
2022-12-02T03:23:39.447Z,12.57
2022-12-02T03:24:41.563Z,12.50
2022-12-02T03:25:43.678Z,12.02
2022-12-02T03:26:46.223Z,11.80
2022-12-02T03:27:48.273Z,11.57
2022-12-02T03:28:50.629Z,12.32
2022-12-02T03:29:52.750Z,15.27
2022-12-02T03:30:54.832Z,13.98
2022-12-02T03:31:57.701Z,15.05
2022-12-02T03:32:59.941Z,15.50
2022-12-02T03:34:02.040Z,14.25
2022-12-02T03:35:04.199Z,13.50
2022-12-02T03:36:06.706Z,14.02
2022-12-02T03:37:09.224Z,12.82
2022-12-02T03:38:11.437Z,14.20
2022-12-02T03:39:13.796Z,13.63
2022-12-02T03:40:16.483Z,13.30
2022-12-02T03:41:18.744Z,12.90
2022-12-02T03:42:21.310Z,12.27
2022-12-02T03:43:23.429Z,14.05
2022-12-02T03:44:25.515Z,12.98
2022-12-02T03:45:27.940Z,13.38
2022-12-02T03:46:30.577Z,12.88
2022-12-02T03:47:32.724Z,12.30
2022-12-02T03:48:38.771Z,13.35
2022-12-02T03:49:40.991Z,13.23
2022-12-02T03:50:43.045Z,11.65
2022-12-02T03:51:45.760Z,12.32
2022-12-02T03:52:48.388Z,12.05
2022-12-02T03:53:50.486Z,11.43
2022-12-02T03:54:55.377Z,12.02
2022-12-02T03:55:57.892Z,11.75
2022-12-02T03:56:59.930Z,11.57
2022-12-02T03:58:05.780Z,11.02
2022-12-02T03:59:07.773Z,10.77
2022-12-02T04:00:15.844Z,10.23
2022-12-02T04:01:19.640Z,9.73
2022-12-02T04:02:21.749Z,9.35
2022-12-02T04:03:23.795Z,9.43
2022-12-02T04:04:25.990Z,10.25
2022-12-02T04:05:28.134Z,9.05
2022-12-02T04:06:30.146Z,10.00
2022-12-02T04:07:32.215Z,10.20
2022-12-02T04:08:34.265Z,9.05
2022-12-02T04:09:36.292Z,10.10
2022-12-02T04:10:38.330Z,8.98
2022-12-02T04:11:40.325Z,9.02
2022-12-02T04:12:42.306Z,9.40
2022-12-02T04:13:44.288Z,9.30
2022-12-02T04:14:46.314Z,8.25
2022-12-02T04:15:48.345Z,9.85
2022-12-02T04:16:50.367Z,8.90
2022-12-02T04:17:52.421Z,9.50
2022-12-02T04:18:54.392Z,9.40
2022-12-02T04:19:56.485Z,9.40
2022-12-02T04:20:58.531Z,8.90
2022-12-02T04:22:00.572Z,9.52
2022-12-02T04:23:02.654Z,8.57
2022-12-02T04:24:04.834Z,8.43
2022-12-02T04:25:07.029Z,9.50
2022-12-02T04:26:09.079Z,9.52
2022-12-02T04:27:11.085Z,10.60
2022-12-02T04:28:13.114Z,10.48
2022-12-02T04:29:15.598Z,11.27
2022-12-02T04:30:17.640Z,11.27
2022-12-02T04:31:19.734Z,10.35
2022-12-02T04:32:21.840Z,11.25
2022-12-02T04:33:23.820Z,10.23
2022-12-02T04:34:25.864Z,10.48
2022-12-02T04:35:27.821Z,11.32
2022-12-02T04:36:29.907Z,10.00
2022-12-02T04:37:31.850Z,9.50
2022-12-02T04:38:33.843Z,8.85
2022-12-02T04:39:35.819Z,9.80
2022-12-02T04:40:37.792Z,9.43
2022-12-02T04:41:39.863Z,9.20
2022-12-02T04:42:41.912Z,9.38
2022-12-02T04:43:43.887Z,10.18
2022-12-02T04:44:45.907Z,9.50
2022-12-02T04:45:47.997Z,10.77
2022-12-02T04:46:50.024Z,10.05
2022-12-02T04:47:52.110Z,10.10
2022-12-02T04:48:54.138Z,9.90
2022-12-02T04:49:56.149Z,11.23
2022-12-02T04:50:58.154Z,10.82
2022-12-02T04:52:00.167Z,10.68
2022-12-02T04:53:02.247Z,10.93
2022-12-02T04:54:04.365Z,10.85
2022-12-02T04:55:06.623Z,11.10
2022-12-02T04:56:08.564Z,11.45
2022-12-02T04:57:10.845Z,10.90
2022-12-02T04:58:13.320Z,11.00
2022-12-02T04:59:15.346Z,11.30
2022-12-02T05:00:17.423Z,11.57
2022-12-02T05:01:19.830Z,11.77
2022-12-02T05:02:21.962Z,11.27
2022-12-02T05:03:24.127Z,11.07
2022-12-02T05:04:26.315Z,11.20
2022-12-02T05:05:28.534Z,11.10
2022-12-02T05:06:30.582Z,10.75
2022-12-02T05:07:32.699Z,11.52
2022-12-02T05:08:34.766Z,10.57
2022-12-02T05:09:36.852Z,10.75
2022-12-02T05:10:38.880Z,10.73
2022-12-02T05:11:40.990Z,10.40
2022-12-02T05:12:43.039Z,10.63
2022-12-02T05:13:45.060Z,10.73
2022-12-02T05:14:47.167Z,11.48
2022-12-02T05:15:49.231Z,11.60
2022-12-02T05:16:51.334Z,10.55
2022-12-02T05:17:53.418Z,12.05
2022-12-02T05:18:55.480Z,11.05
2022-12-02T05:19:57.567Z,11.45
2022-12-02T05:20:59.638Z,10.80
2022-12-02T05:22:01.641Z,10.90
2022-12-02T05:23:03.629Z,10.10
2022-12-02T05:24:06.071Z,9.70
2022-12-02T05:25:08.216Z,10.52
2022-12-02T05:26:10.239Z,10.48
2022-12-02T05:27:12.624Z,9.50
2022-12-02T05:28:14.562Z,9.70
2022-12-02T05:29:16.652Z,9.10
2022-12-02T05:30:18.764Z,9.40
2022-12-02T05:31:20.779Z,9.82
2022-12-02T05:32:22.849Z,10.40
2022-12-02T05:33:24.848Z,9.90
2022-12-02T05:34:26.899Z,10.27
2022-12-02T05:35:28.972Z,9.77
2022-12-02T05:36:30.964Z,10.27
2022-12-02T05:37:32.979Z,9.73
2022-12-02T05:38:34.996Z,10.80
2022-12-02T05:39:37.067Z,11.43
2022-12-02T05:40:39.123Z,10.32
2022-12-02T05:41:41.218Z,11.02
2022-12-02T05:42:43.389Z,11.02
2022-12-02T05:43:45.503Z,11.65
2022-12-02T05:44:47.563Z,11.60
2022-12-02T05:45:49.876Z,10.05
2022-12-02T05:46:51.931Z,9.82
2022-12-02T05:47:54.561Z,9.02
2022-12-02T05:48:57.956Z,9.68
2022-12-02T05:50:01.374Z,9.25
2022-12-02T05:51:03.442Z,9.50
2022-12-02T05:52:18.649Z,9.68
2022-12-02T05:53:24.912Z,10.80
2022-12-02T05:54:27.768Z,10.70
2022-12-02T05:55:30.561Z,10.20
2022-12-02T05:56:32.644Z,10.48
2022-12-02T05:57:34.612Z,11.02
2022-12-02T05:58:36.540Z,11.55
2022-12-02T05:59:38.564Z,11.30
2022-12-02T06:00:40.655Z,10.48
2022-12-02T06:01:43.141Z,10.55
2022-12-02T06:02:47.183Z,10.55
2022-12-02T06:03:50.482Z,10.85
2022-12-02T06:04:53.064Z,11.35
2022-12-02T06:05:55.230Z,9.88
2022-12-02T06:06:59.778Z,10.48
2022-12-02T06:08:09.100Z,10.68
2022-12-02T06:09:18.315Z,10.27
2022-12-02T06:10:30.846Z,10.68
2022-12-02T06:11:39.183Z,9.20
2022-12-02T06:12:41.224Z,9.07
2022-12-02T06:13:43.764Z,10.32
2022-12-02T06:14:48.431Z,9.70
2022-12-02T06:15:51.783Z,9.95
2022-12-02T06:17:02.035Z,9.68
2022-12-02T06:18:11.602Z,8.90
2022-12-02T06:19:25.665Z,9.18
2022-12-02T06:20:30.520Z,8.75
2022-12-02T06:21:32.684Z,8.90
2022-12-02T06:22:34.785Z,10.15
2022-12-02T06:23:38.555Z,9.82
2022-12-02T06:24:40.533Z,9.43
2022-12-02T06:25:43.096Z,9.02
2022-12-02T06:26:45.193Z,9.60
2022-12-02T06:27:47.248Z,7.85
2022-12-02T06:29:02.958Z,8.98
2022-12-02T06:30:05.493Z,9.35
2022-12-02T06:31:25.307Z,9.05
2022-12-02T06:32:34.909Z,9.30
2022-12-02T06:33:37.864Z,9.38
2022-12-02T06:34:40.964Z,10.20
2022-12-02T06:35:42.995Z,10.88
2022-12-02T06:36:44.994Z,9.63
2022-12-02T06:37:47.009Z,9.90
2022-12-02T06:38:51.207Z,9.50
2022-12-02T06:40:26.259Z,10.82
2022-12-02T06:41:32.073Z,9.80
2022-12-02T06:42:39.102Z,11.35
2022-12-02T06:43:41.288Z,11.75
2022-12-02T06:45:02.151Z,13.18
2022-12-02T06:46:08.068Z,12.15
2022-12-02T06:47:28.790Z,11.77
2022-12-02T06:48:34.747Z,12.38
2022-12-02T06:49:39.600Z,12.35
2022-12-02T06:50:43.417Z,12.32
2022-12-02T06:51:45.690Z,12.07
2022-12-02T06:52:48.219Z,12.45
2022-12-02T06:53:51.013Z,12.45
2022-12-02T06:54:53.489Z,15.18
2022-12-02T06:55:59.926Z,13.07
2022-12-02T06:57:03.699Z,11.77
2022-12-02T06:58:41.463Z,12.52
2022-12-02T06:59:47.462Z,12.65
2022-12-02T07:00:49.696Z,14.60
2022-12-02T07:01:56.274Z,14.48
2022-12-02T07:02:58.356Z,12.68
2022-12-02T07:04:06.586Z,11.60
2022-12-02T07:05:08.682Z,11.57
2022-12-02T07:06:15.711Z,10.77
2022-12-02T07:07:27.120Z,10.65
2022-12-02T07:08:29.568Z,10.05
2022-12-02T07:09:39.203Z,10.25
2022-12-02T07:10:41.221Z,10.98
2022-12-02T07:11:51.412Z,10.57
2022-12-02T07:12:53.957Z,11.32
2022-12-02T07:13:55.921Z,11.73
2022-12-02T07:14:58.748Z,10.85
2022-12-02T07:16:00.870Z,10.80
2022-12-02T07:17:06.779Z,11.20
2022-12-02T07:18:17.088Z,10.98
2022-12-02T07:19:30.346Z,10.90
2022-12-02T07:20:34.052Z,11.82
2022-12-02T07:21:36.232Z,14.98
2022-12-02T07:22:44.472Z,13.43
2022-12-02T07:23:46.705Z,11.00
2022-12-02T07:25:01.909Z,11.00
2022-12-02T07:26:03.982Z,11.45
2022-12-02T07:27:12.291Z,10.82
2022-12-02T07:28:26.639Z,12.13
2022-12-02T07:29:30.282Z,11.80
2022-12-02T07:30:41.614Z,12.07
2022-12-02T07:31:44.871Z,11.23
2022-12-02T07:32:47.521Z,12.00
2022-12-02T07:33:49.949Z,12.50
2022-12-02T07:34:53.100Z,14.52
2022-12-02T07:35:55.370Z,15.82
2022-12-02T07:36:57.426Z,17.65
2022-12-02T07:37:59.555Z,19.15
2022-12-02T07:39:06.933Z,19.00
2022-12-02T07:40:12.904Z,18.73
2022-12-02T07:41:15.053Z,16.67
2022-12-02T07:42:17.027Z,17.60
2022-12-02T07:43:19.068Z,15.93
2022-12-02T07:44:21.156Z,15.15
2022-12-02T07:45:23.268Z,14.48
2022-12-02T07:46:26.673Z,12.07
2022-12-02T07:47:28.983Z,11.00
2022-12-02T07:48:30.999Z,12.20
2022-12-02T07:49:32.996Z,13.43
2022-12-02T07:50:35.612Z,12.15
2022-12-02T07:51:38.146Z,11.73
2022-12-02T07:52:40.487Z,12.32
2022-12-02T07:53:43.178Z,12.50
2022-12-02T07:54:45.249Z,12.20
2022-12-02T07:55:47.315Z,12.02
2022-12-02T07:56:49.343Z,12.95
2022-12-02T07:57:51.371Z,13.93
2022-12-02T08:01:19.672Z,13.32
2022-12-02T08:02:22.273Z,12.20
2022-12-02T08:03:24.487Z,13.05
2022-12-02T08:04:26.553Z,13.15
2022-12-02T08:05:28.990Z,12.85
2022-12-02T08:06:35.791Z,12.88
2022-12-02T08:07:42.801Z,12.80
2022-12-02T08:08:44.927Z,13.95
2022-12-02T08:09:47.077Z,13.20
2022-12-02T08:10:49.185Z,13.02
2022-12-02T08:11:51.189Z,12.55
2022-12-02T08:12:53.207Z,14.07
2022-12-02T08:13:56.208Z,12.70
2022-12-02T08:14:58.251Z,12.60
2022-12-02T08:16:00.262Z,11.88
2022-12-02T08:17:02.415Z,12.25
2022-12-02T08:18:04.539Z,11.95
2022-12-02T08:19:06.548Z,13.48
2022-12-02T08:20:09.926Z,14.13
2022-12-02T08:21:11.916Z,12.60
2022-12-02T08:22:14.016Z,12.25
2022-12-02T08:23:16.052Z,12.88
2022-12-02T08:24:18.061Z,12.07
2022-12-02T08:25:20.141Z,13.15
2022-12-02T08:26:22.229Z,13.38
2022-12-02T08:27:24.252Z,12.88
2022-12-02T08:28:26.339Z,14.15
2022-12-02T08:29:28.920Z,14.10
2022-12-02T08:30:30.991Z,14.73
2022-12-02T08:31:32.999Z,13.55
2022-12-02T08:32:35.369Z,14.43
2022-12-02T08:33:37.559Z,13.88
2022-12-02T08:34:39.690Z,14.90
2022-12-02T08:35:41.775Z,13.98
2022-12-02T08:36:43.741Z,14.13
2022-12-02T08:37:45.802Z,14.73
2022-12-02T08:38:48.176Z,14.50
2022-12-02T08:39:50.253Z,14.18
2022-12-02T08:40:52.367Z,14.38
2022-12-02T08:41:54.506Z,15.25
2022-12-02T08:42:56.662Z,19.23
2022-12-02T08:43:59.730Z,18.67
2022-12-02T08:45:01.834Z,20.90
2022-12-02T08:46:04.004Z,15.82
2022-12-02T08:47:06.176Z,15.10
2022-12-02T08:48:08.304Z,29.50
2022-12-02T08:49:10.414Z,16.05
2022-12-02T08:50:12.492Z,16.02
2022-12-02T08:51:14.535Z,30.13
2022-12-02T08:52:16.644Z,14.70
2022-12-02T08:53:18.665Z,14.95
2022-12-02T08:54:20.972Z,15.30
2022-12-02T08:55:22.965Z,19.92
2022-12-02T08:56:25.094Z,15.10
2022-12-02T08:57:27.189Z,15.00
2022-12-02T08:58:29.136Z,15.00
2022-12-02T08:59:31.417Z,13.18
2022-12-02T09:00:38.723Z,13.00
2022-12-02T09:01:41.382Z,13.02
2022-12-02T09:02:43.456Z,13.63
2022-12-02T09:03:45.529Z,14.05
2022-12-02T09:04:47.554Z,11.75
2022-12-02T09:05:49.665Z,16.48
2022-12-02T09:06:51.654Z,21.10
2022-12-02T09:07:53.841Z,16.05
2022-12-02T09:08:56.150Z,14.13
2022-12-02T09:09:58.322Z,14.23
2022-12-02T09:11:00.474Z,14.75
2022-12-02T09:12:02.683Z,16.83
2022-12-02T09:13:04.687Z,14.45
2022-12-02T09:14:06.698Z,13.93
2022-12-02T09:15:08.968Z,16.00
2022-12-02T09:16:11.263Z,15.15
2022-12-02T09:17:13.495Z,16.05
2022-12-02T09:18:15.596Z,14.90
2022-12-02T09:19:17.571Z,14.38
2022-12-02T09:20:19.935Z,14.02
2022-12-02T09:21:22.195Z,13.15
2022-12-02T09:22:24.310Z,11.98
2022-12-02T09:23:26.388Z,12.35
2022-12-02T09:24:28.460Z,14.73
2022-12-02T09:25:30.499Z,12.30
2022-12-02T09:26:32.715Z,12.38
2022-12-02T09:27:34.851Z,14.02
2022-12-02T09:28:36.965Z,12.45
2022-12-02T09:29:39.030Z,13.15
2022-12-02T09:30:41.134Z,13.38
2022-12-02T09:31:43.241Z,14.68
2022-12-02T09:32:46.410Z,13.05
2022-12-02T09:33:48.634Z,13.05
2022-12-02T09:34:50.905Z,13.23
2022-12-02T09:35:53.341Z,13.07
2022-12-02T09:36:55.757Z,12.45
2022-12-02T09:37:57.958Z,13.40
2022-12-02T09:39:00.232Z,12.13
2022-12-02T09:40:02.489Z,11.90
2022-12-02T09:41:04.670Z,12.20
2022-12-02T09:42:10.556Z,12.57
2022-12-02T09:43:12.653Z,11.82
2022-12-02T09:44:14.747Z,12.15
2022-12-02T09:45:17.015Z,12.50
2022-12-02T09:46:24.370Z,12.98
2022-12-02T09:47:28.368Z,13.27
2022-12-02T09:48:30.583Z,12.85
2022-12-02T09:49:33.584Z,12.50
2022-12-02T09:50:36.594Z,12.55
2022-12-02T09:51:38.657Z,13.13
2022-12-02T09:52:41.140Z,12.45
2022-12-02T09:53:43.533Z,12.02
2022-12-02T09:54:46.741Z,12.90
2022-12-02T09:55:48.951Z,12.45
2022-12-02T09:56:51.264Z,14.15
2022-12-02T09:57:53.351Z,13.30
2022-12-02T09:58:56.435Z,13.32
2022-12-02T09:59:59.551Z,14.18
2022-12-02T10:01:02.125Z,14.30
2022-12-02T10:02:04.369Z,14.52
2022-12-02T10:03:09.034Z,15.10
2022-12-02T10:04:14.807Z,15.73
2022-12-02T10:05:19.272Z,15.45
2022-12-02T10:06:25.614Z,15.32
2022-12-02T10:07:28.378Z,16.13
2022-12-02T10:08:32.531Z,16.80
2022-12-02T10:09:35.326Z,13.90
2022-12-02T10:10:38.802Z,13.57
2022-12-02T10:11:40.875Z,15.07
2022-12-02T10:12:43.160Z,15.10
2022-12-02T10:13:45.308Z,14.52
2022-12-02T10:14:50.937Z,12.68
2022-12-02T10:15:54.138Z,13.10
2022-12-02T10:16:56.800Z,12.63
2022-12-02T10:18:01.881Z,13.27
2022-12-02T10:19:05.084Z,11.80
2022-12-02T10:20:07.969Z,12.00
2022-12-02T10:21:10.044Z,13.02
2022-12-02T10:22:19.563Z,11.65
2022-12-02T10:23:26.052Z,13.43
2022-12-02T10:24:46.100Z,12.02
2022-12-02T10:26:08.357Z,18.25
2022-12-02T10:27:23.318Z,14.82
2022-12-02T10:28:29.320Z,17.67
2022-12-02T10:29:32.109Z,17.52
2022-12-02T10:30:34.289Z,14.23
2022-12-02T10:31:36.428Z,13.93
2022-12-02T10:32:38.501Z,13.73
2022-12-02T10:33:52.472Z,13.52
2022-12-02T10:35:06.183Z,11.60
2022-12-02T10:36:09.432Z,10.77
2022-12-02T10:37:23.896Z,11.70
2022-12-02T10:38:36.939Z,12.05
2022-12-02T10:39:39.188Z,13.23
2022-12-02T10:40:41.161Z,12.80
2022-12-02T10:41:43.244Z,12.60
2022-12-02T10:42:45.532Z,14.55
2022-12-02T10:43:53.635Z,13.48
2022-12-02T10:45:09.565Z,10.40
2022-12-02T10:46:12.909Z,11.65
2022-12-02T10:47:14.985Z,10.13
2022-12-02T10:48:17.972Z,10.20
2022-12-02T10:49:26.122Z,16.58
2022-12-02T10:50:28.119Z,12.55
2022-12-02T10:51:30.141Z,10.45
2022-12-02T10:52:44.434Z,13.98
2022-12-02T10:53:48.118Z,9.48
2022-12-02T10:54:51.518Z,11.38
2022-12-02T10:55:53.940Z,12.98
2022-12-02T10:56:56.954Z,9.07
2022-12-02T10:57:58.985Z,8.93
2022-12-02T10:59:02.915Z,8.82
2022-12-02T11:00:13.067Z,8.95
2022-12-02T11:01:15.197Z,11.57
2022-12-02T11:02:19.975Z,8.98
2022-12-02T11:03:23.007Z,9.77
2022-12-02T11:04:25.080Z,11.65
2022-12-02T11:05:35.558Z,29.60
2022-12-02T11:06:37.550Z,10.50
2022-12-02T11:07:39.732Z,12.73
2022-12-02T11:08:43.040Z,19.60
2022-12-02T11:09:46.705Z,13.35
2022-12-02T11:10:50.238Z,10.05
2022-12-02T11:11:52.274Z,11.50
2022-12-02T11:12:54.749Z,9.70
2022-12-02T11:14:08.064Z,10.20
2022-12-02T11:15:28.776Z,9.85
2022-12-02T11:16:33.838Z,9.90
2022-12-02T11:17:46.670Z,9.63
2022-12-02T11:18:56.296Z,14.30
2022-12-02T11:20:18.214Z,13.27
2022-12-02T11:23:24.069Z,13.02
2022-12-02T11:24:29.285Z,10.75
2022-12-02T11:25:43.620Z,11.27
2022-12-02T11:27:04.038Z,11.25
2022-12-02T11:28:15.710Z,12.05
2022-12-02T11:30:19.904Z,11.00
2022-12-02T11:31:26.132Z,10.80
2022-12-02T11:32:28.457Z,11.40
2022-12-02T11:33:39.719Z,11.10
2022-12-02T11:35:16.289Z,11.15
2022-12-02T11:36:23.882Z,11.18
2022-12-02T11:37:28.857Z,11.32
2022-12-02T11:38:44.186Z,12.68
2022-12-02T11:39:51.550Z,11.40
2022-12-02T11:40:54.981Z,10.85
2022-12-02T11:42:00.906Z,10.15
2022-12-02T11:43:21.810Z,10.05
2022-12-02T11:44:28.854Z,9.40
2022-12-02T11:45:36.950Z,10.35
2022-12-02T11:46:40.198Z,11.50
2022-12-02T11:47:54.492Z,9.45
2022-12-02T11:48:57.170Z,10.95
2022-12-02T11:50:19.866Z,10.43
2022-12-02T11:51:24.620Z,12.48
2022-12-02T11:52:26.925Z,11.20
2022-12-02T11:53:28.982Z,13.82
2022-12-02T11:54:31.545Z,12.48
2022-12-02T11:55:35.757Z,12.57
2022-12-02T11:56:39.101Z,12.95
2022-12-02T11:57:43.901Z,12.73
2022-12-02T11:58:46.029Z,12.63
2022-12-02T11:59:48.541Z,11.80
2022-12-02T12:01:05.722Z,11.82
2022-12-02T12:02:15.095Z,12.00
2022-12-02T12:03:18.724Z,15.45
2022-12-02T12:04:24.170Z,15.23
2022-12-02T12:05:26.152Z,15.88
2022-12-02T12:06:34.713Z,13.65
2022-12-02T12:07:47.464Z,12.27
2022-12-02T12:08:53.758Z,11.80
2022-12-02T12:09:59.141Z,11.32
2022-12-02T12:11:16.192Z,12.63
2022-12-02T12:12:19.943Z,12.48
2022-12-02T12:13:30.418Z,13.10
2022-12-02T12:14:53.802Z,12.82
2022-12-02T12:15:59.892Z,15.30
2022-12-02T12:17:17.952Z,13.63
2022-12-02T12:18:36.637Z,26.75
2022-12-02T12:19:38.676Z,18.23
2022-12-02T12:20:44.149Z,19.23
2022-12-02T12:21:56.510Z,16.73
2022-12-02T12:23:17.227Z,15.93
2022-12-02T12:24:20.896Z,15.98
2022-12-02T12:25:44.637Z,16.77
2022-12-02T12:27:16.083Z,14.88
2022-12-02T12:28:28.305Z,19.45
2022-12-02T12:29:31.765Z,17.10
2022-12-02T12:30:33.977Z,23.98
2022-12-02T12:31:38.703Z,26.27
2022-12-02T12:32:40.882Z,24.25
2022-12-02T12:33:42.908Z,21.08
2022-12-02T12:34:44.868Z,21.42
2022-12-02T12:35:47.026Z,19.15
2022-12-02T12:36:49.242Z,17.08
2022-12-02T12:37:51.212Z,16.48
2022-12-02T12:38:53.340Z,17.08
2022-12-02T12:39:55.369Z,16.40
2022-12-02T12:40:58.351Z,13.80
2022-12-02T12:42:01.291Z,15.63
2022-12-02T12:43:03.863Z,14.98
2022-12-02T12:44:06.011Z,14.45
2022-12-02T12:45:08.218Z,15.13
2022-12-02T12:46:10.288Z,16.30
2022-12-02T12:47:12.465Z,13.57
2022-12-02T12:48:14.488Z,13.63
2022-12-02T12:49:16.575Z,12.80
2022-12-02T12:50:18.737Z,13.30
2022-12-02T12:51:20.872Z,13.25
2022-12-02T12:52:23.414Z,12.20
2022-12-02T12:53:25.413Z,12.68
2022-12-02T12:54:27.766Z,12.02
2022-12-02T12:55:29.766Z,13.05
2022-12-02T12:56:31.800Z,12.13
2022-12-02T12:57:33.922Z,12.77
2022-12-02T12:58:35.994Z,12.13
2022-12-02T12:59:38.082Z,17.05
2022-12-02T13:00:40.092Z,15.43
2022-12-02T13:01:44.092Z,16.05
2022-12-02T13:02:46.141Z,17.63
2022-12-02T13:03:48.269Z,15.93
2022-12-02T13:04:50.512Z,15.57
2022-12-02T13:05:52.751Z,13.98
2022-12-02T13:06:54.714Z,13.00
2022-12-02T13:07:57.376Z,12.38
2022-12-02T13:08:59.437Z,12.40
2022-12-02T13:10:01.514Z,13.55
2022-12-02T13:11:03.977Z,12.27
2022-12-02T13:12:11.282Z,12.30
2022-12-02T13:13:15.076Z,12.07
2022-12-02T13:14:17.328Z,12.88
2022-12-02T13:15:19.761Z,14.02
2022-12-02T13:16:21.882Z,12.98
2022-12-02T13:17:23.911Z,12.77
2022-12-02T13:18:25.881Z,15.20
2022-12-02T13:19:28.200Z,14.38
2022-12-02T13:20:30.404Z,14.65
2022-12-02T13:21:32.450Z,14.02
2022-12-02T13:22:34.512Z,12.68
2022-12-02T13:23:36.460Z,13.05
2022-12-02T13:24:43.100Z,13.82
2022-12-02T13:25:45.462Z,14.00
2022-12-02T13:26:47.482Z,14.02
2022-12-02T13:27:49.503Z,14.68
2022-12-02T13:28:53.524Z,14.05
2022-12-02T13:29:55.865Z,13.40
2022-12-02T13:30:57.972Z,13.25
2022-12-02T13:32:00.169Z,13.35
2022-12-02T13:33:02.231Z,13.73
2022-12-02T13:34:04.327Z,14.18
2022-12-02T13:35:06.594Z,13.88
2022-12-02T13:36:08.908Z,14.82
2022-12-02T13:37:10.899Z,14.98
2022-12-02T13:38:12.896Z,14.52
2022-12-02T13:39:14.902Z,14.32
2022-12-02T13:40:18.188Z,14.55
2022-12-02T13:41:20.148Z,13.05
2022-12-02T13:42:22.174Z,13.40
2022-12-02T13:43:24.130Z,12.88
2022-12-02T13:44:26.168Z,13.75
2022-12-02T13:45:28.275Z,14.00
2022-12-02T13:46:30.626Z,18.58
2022-12-02T13:47:32.696Z,18.80
2022-12-02T13:48:34.753Z,19.15
2022-12-02T13:49:36.859Z,18.75
2022-12-02T13:50:38.953Z,22.50
2022-12-02T13:51:40.963Z,21.85